EFOU

Oulu Airport

Oulu / Oulunsalo, Finland
TAF EFOU 212336Z 2200/2224 27004KT CAVOK PROB30 2208/2211 0800 FZFG BKN001 BECMG 2211/2213 1000 BR BKN001 BECMG 2215/2217 8000 -SN BKN010 TEMPO 2217/2224 2500 SN BKN004
Issued Valid From Valid To
Jan-21 @ 23:36 UTC
(32 minutes ago)
Jan-22 @ 00:00 UTC
(8 minutes ago)
Jan-23 @ 00:00 UTC
(in 24 hours)
Jan-22 @ 00:00 to Jan-22 @ 11:00
TAF EFOU 212336Z 2200/2224 27004KT CAVOK
Wind Visibility Clouds Conditions
270° at 4 knots 10,000+ meters
  • No significant clouds
Probable  (Probability 30%) Jan-22 @ 08:00 to Jan-22 @ 11:00
PROB30 2208/2211 0800 FZFG BKN001
Visibility Clouds Conditions
805 meters
  • Broken at 100' AGL
  • Freezing
  • Fog
Becoming Jan-22 @ 11:00 to Jan-22 @ 15:00
BECMG 2211/2213 1000 BR BKN001
Wind Visibility Clouds Conditions
270° at 4 knots 998 meters
  • Broken at 100' AGL
  • Mist
Becoming Jan-22 @ 15:00 to Jan-23 @ 00:00
BECMG 2215/2217 8000 -SN BKN010
Wind Visibility Clouds Conditions
270° at 4 knots 7,998 meters
  • Broken at 1,000' AGL
  • Light Snow
Temporary Jan-22 @ 17:00 to Jan-23 @ 00:00
TEMPO 2217/2224 2500 SN BKN004
Visibility Clouds Conditions
2,494 meters
  • Broken at 400' AGL
  • Snow
TAF EFOU 212336Z 2200/2224 27004KT CAVOK PROB30 2208/2211 0800 FZFG BKN001 BECMG 2211/2213 1000 BR BKN001 BECMG 2215/2217 8000 -SN BKN010 TEMPO 2217/2224 2500 SN BKN004
Issued Jan-21 @ 23:36 UTC
(32 minutes ago)
Valid From Jan-22 @ 00:00 UTC
(8 minutes ago)
Valid To Jan-23 @ 00:00 UTC
(in 24 hours)
Jan-22 @ 00:00 - Jan-22 @ 11:00
Wind Visibility
270° at 4 knots 10,000+ meters
Clouds
  • No significant clouds
Conditions
Probability 30% Probable Jan-22 @ 08:00 - Jan-22 @ 11:00
Clouds
  • Broken at 100' AGL
Conditions
  • Freezing
  • Fog
Becoming Jan-22 @ 11:00 - Jan-22 @ 15:00
Wind Visibility
270° at 4 knots 998 meters
Clouds
  • Broken at 100' AGL
Conditions
  • Mist
Becoming Jan-22 @ 15:00 - Jan-23 @ 00:00
Wind Visibility
270° at 4 knots 7,998 meters
Clouds
  • Broken at 1,000' AGL
Conditions
  • Light Snow
Temporary Jan-22 @ 17:00 - Jan-23 @ 00:00
Clouds
  • Broken at 400' AGL
Conditions
  • Snow